sensor_id;sensor_type;location;lat;lon;timestamp;pressure;altitude;pressure_sealevel;temperature;humidity
11223;BME280;5668;52.012;8.724;2024-02-23T00:02:04;97093.59;;;10.30;74.16
11223;BME280;5668;52.012;8.724;2024-02-23T00:04:33;97075.38;;;10.24;73.64
11223;BME280;5668;52.012;8.724;2024-02-23T00:07:00;97081.81;;;10.28;74.13
11223;BME280;5668;52.012;8.724;2024-02-23T00:09:28;97083.41;;;10.29;73.96
11223;BME280;5668;52.012;8.724;2024-02-23T00:11:56;97085.22;;;10.28;74.39
11223;BME280;5668;52.012;8.724;2024-02-23T00:14:23;97085.34;;;10.20;72.14
11223;BME280;5668;52.012;8.724;2024-02-23T00:16:50;97108.19;;;10.17;73.49
11223;BME280;5668;52.012;8.724;2024-02-23T00:19:17;97088.44;;;10.16;73.78
11223;BME280;5668;52.012;8.724;2024-02-23T00:21:47;97116.47;;;10.20;74.38
11223;BME280;5668;52.012;8.724;2024-02-23T00:24:16;97118.59;;;10.17;74.25
11223;BME280;5668;52.012;8.724;2024-02-23T00:26:43;97124.34;;;10.12;73.67
11223;BME280;5668;52.012;8.724;2024-02-23T00:29:10;97123.34;;;10.13;74.40
11223;BME280;5668;52.012;8.724;2024-02-23T00:31:38;97147.59;;;10.05;74.18
11223;BME280;5668;52.012;8.724;2024-02-23T00:34:07;97152.09;;;9.97;76.07
11223;BME280;5668;52.012;8.724;2024-02-23T00:36:37;97174.72;;;9.88;75.85
11223;BME280;5668;52.012;8.724;2024-02-23T00:39:06;97196.19;;;9.82;76.33
11223;BME280;5668;52.012;8.724;2024-02-23T00:41:34;97175.53;;;9.74;76.35
11223;BME280;5668;52.012;8.724;2024-02-23T00:44:01;97179.66;;;9.68;76.23
11223;BME280;5668;52.012;8.724;2024-02-23T00:46:28;97196.47;;;9.73;77.24
11223;BME280;5668;52.012;8.724;2024-02-23T00:48:56;97220.94;;;9.70;77.66
11223;BME280;5668;52.012;8.724;2024-02-23T00:51:23;97225.69;;;9.66;77.91
11223;BME280;5668;52.012;8.724;2024-02-23T00:53:50;97239.47;;;9.67;78.36
11223;BME280;5668;52.012;8.724;2024-02-23T00:56:19;97240.63;;;9.64;78.74
11223;BME280;5668;52.012;8.724;2024-02-23T00:58:46;97264.94;;;9.63;79.37
11223;BME280;5668;52.012;8.724;2024-02-23T01:01:13;97294.16;;;9.57;79.52
11223;BME280;5668;52.012;8.724;2024-02-23T01:03:40;97300.69;;;9.53;79.94
11223;BME280;5668;52.012;8.724;2024-02-23T01:06:07;97308.97;;;9.49;80.54
11223;BME280;5668;52.012;8.724;2024-02-23T01:08:35;97341.56;;;9.43;81.00
11223;BME280;5668;52.012;8.724;2024-02-23T01:11:02;97341.91;;;9.40;81.17
11223;BME280;5668;52.012;8.724;2024-02-23T01:13:31;97359.13;;;9.33;81.12
11223;BME280;5668;52.012;8.724;2024-02-23T01:15:58;97368.41;;;9.27;81.48
11223;BME280;5668;52.012;8.724;2024-02-23T01:18:25;97393.22;;;9.22;82.12
11223;BME280;5668;52.012;8.724;2024-02-23T01:20:53;97398.72;;;9.19;82.03
11223;BME280;5668;52.012;8.724;2024-02-23T01:23:20;97414.63;;;9.16;82.54
11223;BME280;5668;52.012;8.724;2024-02-23T01:25:47;97423.22;;;9.16;83.79
11223;BME280;5668;52.012;8.724;2024-02-23T01:28:14;97422.72;;;9.13;84.16
11223;BME280;5668;52.012;8.724;2024-02-23T01:30:43;97437.50;;;9.04;83.69
11223;BME280;5668;52.012;8.724;2024-02-23T01:33:10;97438.47;;;9.03;84.19
11223;BME280;5668;52.012;8.724;2024-02-23T01:35:37;97445.28;;;9.04;84.15
11223;BME280;5668;52.012;8.724;2024-02-23T01:38:04;97447.09;;;8.96;84.46
11223;BME280;5668;52.012;8.724;2024-02-23T01:40:32;97456.03;;;8.85;83.60
11223;BME280;5668;52.012;8.724;2024-02-23T01:43:03;97466.25;;;8.78;83.17
11223;BME280;5668;52.012;8.724;2024-02-23T01:45:30;97464.31;;;8.72;83.13
11223;BME280;5668;52.012;8.724;2024-02-23T01:47:59;97477.09;;;8.66;82.84
11223;BME280;5668;52.012;8.724;2024-02-23T01:50:27;97478.72;;;8.67;82.81
11223;BME280;5668;52.012;8.724;2024-02-23T01:52:57;97485.38;;;8.69;82.84
11223;BME280;5668;52.012;8.724;2024-02-23T01:55:27;97508.66;;;8.69;83.18
11223;BME280;5668;52.012;8.724;2024-02-23T01:57:56;97494.41;;;8.73;83.18
11223;BME280;5668;52.012;8.724;2024-02-23T02:00:23;97501.72;;;8.70;82.96
11223;BME280;5668;52.012;8.724;2024-02-23T02:02:50;97518.38;;;8.67;82.30
11223;BME280;5668;52.012;8.724;2024-02-23T02:05:19;97523.38;;;8.69;82.82
11223;BME280;5668;52.012;8.724;2024-02-23T02:07:46;97519.03;;;8.69;82.47
11223;BME280;5668;52.012;8.724;2024-02-23T02:10:18;97503.13;;;8.72;83.04
11223;BME280;5668;52.012;8.724;2024-02-23T02:12:46;97523.06;;;8.72;82.38
11223;BME280;5668;52.012;8.724;2024-02-23T02:15:13;97507.34;;;8.73;82.98
11223;BME280;5668;52.012;8.724;2024-02-23T02:17:40;97512.22;;;8.68;82.45
11223;BME280;5668;52.012;8.724;2024-02-23T02:20:12;97531.31;;;8.67;82.27
11223;BME280;5668;52.012;8.724;2024-02-23T02:22:42;97522.59;;;8.60;81.78
11223;BME280;5668;52.012;8.724;2024-02-23T02:25:10;97530.19;;;8.62;82.67
11223;BME280;5668;52.012;8.724;2024-02-23T02:27:37;97540.38;;;8.63;82.32
11223;BME280;5668;52.012;8.724;2024-02-23T02:30:05;97545.88;;;8.60;82.17
11223;BME280;5668;52.012;8.724;2024-02-23T02:32:33;97548.47;;;8.60;82.17
11223;BME280;5668;52.012;8.724;2024-02-23T02:35:00;97551.06;;;8.60;82.27
11223;BME280;5668;52.012;8.724;2024-02-23T02:37:27;97545.06;;;8.60;82.89
11223;BME280;5668;52.012;8.724;2024-02-23T02:39:56;97554.63;;;8.51;82.39
11223;BME280;5668;52.012;8.724;2024-02-23T02:42:23;97559.47;;;8.46;82.05
11223;BME280;5668;52.012;8.724;2024-02-23T02:44:50;97550.25;;;8.35;82.32
11223;BME280;5668;52.012;8.724;2024-02-23T02:47:17;97558.47;;;8.23;82.37
11223;BME280;5668;52.012;8.724;2024-02-23T02:49:44;97567.81;;;8.15;82.20
11223;BME280;5668;52.012;8.724;2024-02-23T02:52:11;97573.00;;;8.15;82.45
11223;BME280;5668;52.012;8.724;2024-02-23T02:54:39;97579.47;;;8.11;82.31
11223;BME280;5668;52.012;8.724;2024-02-23T02:57:07;97592.41;;;8.11;82.56
11223;BME280;5668;52.012;8.724;2024-02-23T02:59:34;97594.00;;;8.12;83.80
11223;BME280;5668;52.012;8.724;2024-02-23T03:02:02;97587.88;;;8.22;83.02
11223;BME280;5668;52.012;8.724;2024-02-23T03:04:29;97592.94;;;8.31;82.78
11223;BME280;5668;52.012;8.724;2024-02-23T03:06:56;97609.56;;;8.29;82.50
11223;BME280;5668;52.012;8.724;2024-02-23T03:09:23;97601.63;;;8.30;82.53
11223;BME280;5668;52.012;8.724;2024-02-23T03:11:51;97612.53;;;8.34;82.52
11223;BME280;5668;52.012;8.724;2024-02-23T03:14:19;97613.81;;;8.38;81.89
11223;BME280;5668;52.012;8.724;2024-02-23T03:16:46;97608.47;;;8.31;81.93
11223;BME280;5668;52.012;8.724;2024-02-23T03:19:15;97613.34;;;8.34;82.40
11223;BME280;5668;52.012;8.724;2024-02-23T03:21:45;97612.53;;;8.34;81.67
11223;BME280;5668;52.012;8.724;2024-02-23T03:24:13;97613.50;;;8.33;81.56
11223;BME280;5668;52.012;8.724;2024-02-23T03:26:40;97628.06;;;8.34;82.52
11223;BME280;5668;52.012;8.724;2024-02-23T03:29:07;97635.00;;;8.33;82.88
11223;BME280;5668;52.012;8.724;2024-02-23T03:31:36;97617.69;;;8.34;82.15
11223;BME280;5668;52.012;8.724;2024-02-23T03:34:04;97629.00;;;8.33;82.21
11223;BME280;5668;52.012;8.724;2024-02-23T03:36:31;97634.19;;;8.33;82.65
11223;BME280;5668;52.012;8.724;2024-02-23T03:38:58;97632.69;;;8.30;82.04
11223;BME280;5668;52.012;8.724;2024-02-23T03:41:25;97640.31;;;8.32;82.09
11223;BME280;5668;52.012;8.724;2024-02-23T03:43:53;97643.25;;;8.37;82.38
11223;BME280;5668;52.012;8.724;2024-02-23T03:46:20;97635.97;;;8.32;81.95
11223;BME280;5668;52.012;8.724;2024-02-23T03:48:49;97644.16;;;8.28;81.10
11223;BME280;5668;52.012;8.724;2024-02-23T03:51:17;97646.09;;;8.26;80.98
11223;BME280;5668;52.012;8.724;2024-02-23T03:53:45;97647.88;;;8.17;80.72
11223;BME280;5668;52.012;8.724;2024-02-23T03:56:13;97645.44;;;8.15;80.39
11223;BME280;5668;52.012;8.724;2024-02-23T03:58:40;97642.50;;;8.10;80.38
11223;BME280;5668;52.012;8.724;2024-02-23T04:01:10;97655.25;;;8.12;81.20
11223;BME280;5668;52.012;8.724;2024-02-23T04:03:37;97649.59;;;8.08;80.92
11223;BME280;5668;52.012;8.724;2024-02-23T04:06:06;97648.31;;;8.12;81.81
11223;BME280;5668;52.012;8.724;2024-02-23T04:08:33;97654.16;;;8.14;81.39
11223;BME280;5668;52.012;8.724;2024-02-23T04:11:00;97654.47;;;8.11;80.56
11223;BME280;5668;52.012;8.724;2024-02-23T04:13:28;97660.94;;;8.15;80.27
11223;BME280;5668;52.012;8.724;2024-02-23T04:15:55;97651.09;;;8.19;80.62
11223;BME280;5668;52.012;8.724;2024-02-23T04:18:23;97657.72;;;8.22;80.45
11223;BME280;5668;52.012;8.724;2024-02-23T04:20:51;97657.41;;;8.25;80.08
11223;BME280;5668;52.012;8.724;2024-02-23T04:23:19;97670.00;;;8.20;80.33
11223;BME280;5668;52.012;8.724;2024-02-23T04:25:46;97674.22;;;8.21;80.51
11223;BME280;5668;52.012;8.724;2024-02-23T04:28:14;97666.94;;;8.16;79.81
11223;BME280;5668;52.012;8.724;2024-02-23T04:30:41;97664.97;;;8.10;78.92
11223;BME280;5668;52.012;8.724;2024-02-23T04:33:08;97668.66;;;7.99;78.82
11223;BME280;5668;52.012;8.724;2024-02-23T04:35:35;97668.63;;;7.91;77.82
11223;BME280;5668;52.012;8.724;2024-02-23T04:38:02;97671.19;;;7.91;77.54
11223;BME280;5668;52.012;8.724;2024-02-23T04:40:31;97677.84;;;7.94;77.49
11223;BME280;5668;52.012;8.724;2024-02-23T04:42:58;97682.22;;;7.93;78.11
11223;BME280;5668;52.012;8.724;2024-02-23T04:45:25;97689.28;;;7.91;78.75
11223;BME280;5668;52.012;8.724;2024-02-23T04:47:52;97685.91;;;7.91;78.99
11223;BME280;5668;52.012;8.724;2024-02-23T04:50:20;97688.34;;;7.92;79.48
11223;BME280;5668;52.012;8.724;2024-02-23T04:52:48;97703.56;;;7.95;79.69
11223;BME280;5668;52.012;8.724;2024-02-23T04:55:16;97691.44;;;7.96;79.75
11223;BME280;5668;52.012;8.724;2024-02-23T04:57:44;97705.81;;;7.98;80.04
11223;BME280;5668;52.012;8.724;2024-02-23T05:00:12;97704.19;;;7.97;78.74
11223;BME280;5668;52.012;8.724;2024-02-23T05:02:39;97716.47;;;7.95;79.01
11223;BME280;5668;52.012;8.724;2024-02-23T05:05:07;97717.75;;;7.91;79.52
11223;BME280;5668;52.012;8.724;2024-02-23T05:07:35;97720.66;;;7.88;78.67
11223;BME280;5668;52.012;8.724;2024-02-23T05:10:03;97728.22;;;7.90;78.43
11223;BME280;5668;52.012;8.724;2024-02-23T05:12:31;97729.03;;;7.90;78.82
11223;BME280;5668;52.012;8.724;2024-02-23T05:15:00;97730.66;;;7.91;79.48
11223;BME280;5668;52.012;8.724;2024-02-23T05:17:28;97736.81;;;7.90;79.95
11223;BME280;5668;52.012;8.724;2024-02-23T05:19:55;97744.56;;;7.90;79.54
11223;BME280;5668;52.012;8.724;2024-02-23T05:22:23;97739.72;;;7.87;79.45
11223;BME280;5668;52.012;8.724;2024-02-23T05:24:50;97748.13;;;7.89;79.40
11223;BME280;5668;52.012;8.724;2024-02-23T05:27:17;97739.03;;;7.85;79.56
11223;BME280;5668;52.012;8.724;2024-02-23T05:29:44;97741.97;;;7.90;79.95
11223;BME280;5668;52.012;8.724;2024-02-23T05:32:13;97743.75;;;7.90;80.01
11223;BME280;5668;52.012;8.724;2024-02-23T05:34:40;97743.25;;;7.86;80.29
11223;BME280;5668;52.012;8.724;2024-02-23T05:37:08;97733.41;;;7.90;79.97
11223;BME280;5668;52.012;8.724;2024-02-23T05:39:35;97743.75;;;7.90;80.55
11223;BME280;5668;52.012;8.724;2024-02-23T05:42:03;97734.88;;;7.92;80.56
11223;BME280;5668;52.012;8.724;2024-02-23T05:44:30;97741.34;;;7.88;80.69
11223;BME280;5668;52.012;8.724;2024-02-23T05:46:58;97743.75;;;7.90;81.65
11223;BME280;5668;52.012;8.724;2024-02-23T05:49:26;97740.34;;;7.81;80.34
11223;BME280;5668;52.012;8.724;2024-02-23T05:51:53;97743.22;;;7.78;79.97
11223;BME280;5668;52.012;8.724;2024-02-23T05:54:21;97747.72;;;7.76;80.42
11223;BME280;5668;52.012;8.724;2024-02-23T05:56:48;97755.13;;;7.71;79.78
11223;BME280;5668;52.012;8.724;2024-02-23T05:59:15;97758.38;;;7.73;80.50
11223;BME280;5668;52.012;8.724;2024-02-23T06:01:42;97760.28;;;7.71;80.21
11223;BME280;5668;52.012;8.724;2024-02-23T06:04:10;97760.91;;;7.65;79.85
11223;BME280;5668;52.012;8.724;2024-02-23T06:06:41;97772.56;;;7.69;79.18
11223;BME280;5668;52.012;8.724;2024-02-23T06:09:09;97769.81;;;7.70;79.93
11223;BME280;5668;52.012;8.724;2024-02-23T06:11:36;97767.91;;;7.72;79.76
11223;BME280;5668;52.012;8.724;2024-02-23T06:14:03;97760.00;;;7.74;80.48
11223;BME280;5668;52.012;8.724;2024-02-23T06:16:30;97765.59;;;7.69;80.28
11223;BME280;5668;52.012;8.724;2024-02-23T06:18:58;97773.72;;;7.74;79.73
11223;BME280;5668;52.012;8.724;2024-02-23T06:21:25;97771.53;;;7.62;79.11
11223;BME280;5668;52.012;8.724;2024-02-23T06:23:53;97776.56;;;7.63;79.23
11223;BME280;5668;52.012;8.724;2024-02-23T06:26:21;97774.25;;;7.60;79.42
11223;BME280;5668;52.012;8.724;2024-02-23T06:28:48;97796.28;;;7.64;79.15
11223;BME280;5668;52.012;8.724;2024-02-23T06:31:16;97787.19;;;7.60;78.54
11223;BME280;5668;52.012;8.724;2024-02-23T06:33:43;97781.22;;;7.60;78.61
11223;BME280;5668;52.012;8.724;2024-02-23T06:36:14;97801.03;;;7.51;78.08
11223;BME280;5668;52.012;8.724;2024-02-23T06:38:42;97792.16;;;7.54;77.91
11223;BME280;5668;52.012;8.724;2024-02-23T06:41:11;97799.75;;;7.55;77.98
11223;BME280;5668;52.012;8.724;2024-02-23T06:43:38;97805.59;;;7.57;78.80
11223;BME280;5668;52.012;8.724;2024-02-23T06:46:07;97798.59;;;7.50;77.32
11223;BME280;5668;52.012;8.724;2024-02-23T06:48:35;97801.84;;;7.52;77.20
11223;BME280;5668;52.012;8.724;2024-02-23T06:51:04;97799.63;;;7.57;77.68
11223;BME280;5668;52.012;8.724;2024-02-23T06:53:31;97801.25;;;7.58;78.14
11223;BME280;5668;52.012;8.724;2024-02-23T06:55:58;97806.19;;;7.51;78.18
11223;BME280;5668;52.012;8.724;2024-02-23T06:58:28;97812.31;;;7.50;77.45
11223;BME280;5668;52.012;8.724;2024-02-23T07:00:55;97820.56;;;7.54;78.26
11223;BME280;5668;52.012;8.724;2024-02-23T07:03:22;97818.31;;;7.51;78.21
11223;BME280;5668;52.012;8.724;2024-02-23T07:05:50;97818.94;;;7.53;77.89
11223;BME280;5668;52.012;8.724;2024-02-23T07:08:17;97812.97;;;7.52;77.80
11223;BME280;5668;52.012;8.724;2024-02-23T07:10:44;97826.56;;;7.54;77.52
11223;BME280;5668;52.012;8.724;2024-02-23T07:13:11;97821.19;;;7.48;77.40
11223;BME280;5668;52.012;8.724;2024-02-23T07:15:40;97819.75;;;7.53;77.93
11223;BME280;5668;52.012;8.724;2024-02-23T07:18:07;97822.94;;;7.47;77.58
11223;BME280;5668;52.012;8.724;2024-02-23T07:20:35;97823.91;;;7.46;77.23
11223;BME280;5668;52.012;8.724;2024-02-23T07:23:03;97814.25;;;7.48;77.24
11223;BME280;5668;52.012;8.724;2024-02-23T07:25:31;97808.94;;;7.50;78.17
11223;BME280;5668;52.012;8.724;2024-02-23T07:27:58;97817.19;;;7.53;78.02
11223;BME280;5668;52.012;8.724;2024-02-23T07:30:25;97829.13;;;7.54;78.00
11223;BME280;5668;52.012;8.724;2024-02-23T07:32:53;97817.69;;;7.57;78.64
11223;BME280;5668;52.012;8.724;2024-02-23T07:35:21;97825.47;;;7.57;78.05
11223;BME280;5668;52.012;8.724;2024-02-23T07:37:48;97821.91;;;7.58;77.42
11223;BME280;5668;52.012;8.724;2024-02-23T07:40:16;97826.75;;;7.61;77.84
11223;BME280;5668;52.012;8.724;2024-02-23T07:42:44;97822.94;;;7.65;77.50
11223;BME280;5668;52.012;8.724;2024-02-23T07:45:11;97820.22;;;7.66;77.22
11223;BME280;5668;52.012;8.724;2024-02-23T07:47:38;97831.31;;;7.67;76.58
11223;BME280;5668;52.012;8.724;2024-02-23T07:50:09;97828.53;;;7.78;77.02
11223;BME280;5668;52.012;8.724;2024-02-23T07:52:38;97840.53;;;7.87;77.95
11223;BME280;5668;52.012;8.724;2024-02-23T07:55:06;97841.50;;;7.86;77.11
11223;BME280;5668;52.012;8.724;2024-02-23T07:57:34;97841.50;;;7.86;76.37
11223;BME280;5668;52.012;8.724;2024-02-23T08:00:01;97853.97;;;7.91;76.28
11223;BME280;5668;52.012;8.724;2024-02-23T08:02:30;97859.31;;;7.89;75.47
11223;BME280;5668;52.012;8.724;2024-02-23T08:04:57;97873.69;;;7.92;75.96
11223;BME280;5668;52.012;8.724;2024-02-23T08:07:25;97872.44;;;7.96;75.33
11223;BME280;5668;52.012;8.724;2024-02-23T08:09:54;97881.22;;;8.03;74.83
11223;BME280;5668;52.012;8.724;2024-02-23T08:12:21;97882.31;;;8.00;74.40
11223;BME280;5668;52.012;8.724;2024-02-23T08:14:48;97883.00;;;8.02;74.71
11223;BME280;5668;52.012;8.724;2024-02-23T08:17:19;97876.09;;;8.11;74.85
11223;BME280;5668;52.012;8.724;2024-02-23T08:19:46;97879.53;;;8.20;74.53
11223;BME280;5668;52.012;8.724;2024-02-23T08:22:14;97891.22;;;8.24;74.47
11223;BME280;5668;52.012;8.724;2024-02-23T08:24:42;97892.84;;;8.25;74.29
11223;BME280;5668;52.012;8.724;2024-02-23T08:27:09;97898.38;;;8.30;73.77
11223;BME280;5668;52.012;8.724;2024-02-23T08:29:38;97888.56;;;8.33;72.96
11223;BME280;5668;52.012;8.724;2024-02-23T08:32:06;97902.31;;;8.34;72.96
11223;BME280;5668;52.012;8.724;2024-02-23T08:34:33;97898.44;;;8.38;73.16
11223;BME280;5668;52.012;8.724;2024-02-23T08:37:01;97912.19;;;8.38;73.05
11223;BME280;5668;52.012;8.724;2024-02-23T08:39:28;97904.97;;;8.42;72.38
11223;BME280;5668;52.012;8.724;2024-02-23T08:41:57;97910.97;;;8.50;73.40
11223;BME280;5668;52.012;8.724;2024-02-23T08:44:24;97906.66;;;8.59;73.34
11223;BME280;5668;52.012;8.724;2024-02-23T08:46:51;97905.03;;;8.58;72.31
11223;BME280;5668;52.012;8.724;2024-02-23T08:49:19;97905.53;;;8.62;71.98
11223;BME280;5668;52.012;8.724;2024-02-23T08:51:46;97909.94;;;8.69;72.40
11223;BME280;5668;52.012;8.724;2024-02-23T08:54:13;97908.03;;;8.71;72.54
11223;BME280;5668;52.012;8.724;2024-02-23T08:56:41;97912.53;;;8.69;71.96
11223;BME280;5668;52.012;8.724;2024-02-23T08:59:10;97911.53;;;8.62;71.07
11223;BME280;5668;52.012;8.724;2024-02-23T09:01:37;97917.97;;;8.58;70.86
11223;BME280;5668;52.012;8.724;2024-02-23T09:04:04;97920.75;;;8.65;71.52
11223;BME280;5668;52.012;8.724;2024-02-23T09:06:32;97919.50;;;8.69;71.90
11223;BME280;5668;52.012;8.724;2024-02-23T09:08:59;97921.25;;;8.68;71.85
11223;BME280;5668;52.012;8.724;2024-02-23T09:11:27;97929.38;;;8.73;71.15
11223;BME280;5668;52.012;8.724;2024-02-23T09:13:54;97928.41;;;8.74;71.96
11223;BME280;5668;52.012;8.724;2024-02-23T09:16:22;97930.34;;;8.72;71.29
11223;BME280;5668;52.012;8.724;2024-02-23T09:18:50;97926.63;;;8.75;70.75
11223;BME280;5668;52.012;8.724;2024-02-23T09:21:18;97937.81;;;8.75;70.94
11223;BME280;5668;52.012;8.724;2024-02-23T09:23:45;97938.13;;;8.80;70.27
11223;BME280;5668;52.012;8.724;2024-02-23T09:26:12;97940.13;;;8.86;70.88
11223;BME280;5668;52.012;8.724;2024-02-23T09:28:39;97942.72;;;8.86;70.63
11223;BME280;5668;52.012;8.724;2024-02-23T09:31:08;97939.78;;;8.81;69.87
11223;BME280;5668;52.012;8.724;2024-02-23T09:33:36;97945.63;;;8.83;70.10
11223;BME280;5668;52.012;8.724;2024-02-23T09:36:04;97943.31;;;8.80;69.95
11223;BME280;5668;52.012;8.724;2024-02-23T09:38:31;97937.84;;;8.83;70.15
11223;BME280;5668;52.012;8.724;2024-02-23T09:40:59;97942.06;;;8.84;70.33
11223;BME280;5668;52.012;8.724;2024-02-23T09:43:29;97940.44;;;8.83;69.78
11223;BME280;5668;52.012;8.724;2024-02-23T09:45:58;97943.69;;;8.85;69.77
11223;BME280;5668;52.012;8.724;2024-02-23T09:48:26;97959.53;;;8.82;69.79
11223;BME280;5668;52.012;8.724;2024-02-23T09:50:56;97950.78;;;8.83;68.85
11223;BME280;5668;52.012;8.724;2024-02-23T09:53:24;97945.47;;;8.85;69.02
11223;BME280;5668;52.012;8.724;2024-02-23T09:55:52;97964.09;;;8.88;69.18
11223;BME280;5668;52.012;8.724;2024-02-23T09:58:21;97961.44;;;8.80;68.26
11223;BME280;5668;52.012;8.724;2024-02-23T10:00:48;97977.31;;;8.77;68.38
11223;BME280;5668;52.012;8.724;2024-02-23T10:03:17;97971.38;;;8.85;68.78
11223;BME280;5668;52.012;8.724;2024-02-23T10:05:44;97969.59;;;8.85;69.02
11223;BME280;5668;52.012;8.724;2024-02-23T10:08:13;97970.88;;;8.89;68.49
11223;BME280;5668;52.012;8.724;2024-02-23T10:10:40;97974.00;;;8.93;69.01
11223;BME280;5668;52.012;8.724;2024-02-23T10:13:08;97956.63;;;8.85;67.93
11223;BME280;5668;52.012;8.724;2024-02-23T10:15:35;97975.69;;;8.76;67.86
11223;BME280;5668;52.012;8.724;2024-02-23T10:18:02;97960.63;;;8.80;68.34
11223;BME280;5668;52.012;8.724;2024-02-23T10:20:29;97972.81;;;8.87;68.62
11223;BME280;5668;52.012;8.724;2024-02-23T10:22:57;97969.78;;;8.92;68.31
11223;BME280;5668;52.012;8.724;2024-02-23T10:25:25;97968.66;;;8.95;67.77
11223;BME280;5668;52.012;8.724;2024-02-23T10:27:53;97969.44;;;8.95;66.97
11223;BME280;5668;52.012;8.724;2024-02-23T10:30:21;97977.69;;;8.90;66.87
11223;BME280;5668;52.012;8.724;2024-02-23T10:32:49;97973.63;;;8.88;66.67
11223;BME280;5668;52.012;8.724;2024-02-23T10:35:21;97979.03;;;8.95;66.74
11223;BME280;5668;52.012;8.724;2024-02-23T10:37:49;97980.31;;;8.99;66.73
11223;BME280;5668;52.012;8.724;2024-02-23T10:40:19;97971.59;;;9.00;66.04
11223;BME280;5668;52.012;8.724;2024-02-23T10:42:50;97974.19;;;9.00;66.65
11223;BME280;5668;52.012;8.724;2024-02-23T10:45:20;97984.22;;;9.03;66.44
11223;BME280;5668;52.012;8.724;2024-02-23T10:47:48;97982.78;;;9.00;65.87
11223;BME280;5668;52.012;8.724;2024-02-23T10:50:18;97984.22;;;9.03;66.16
11223;BME280;5668;52.012;8.724;2024-02-23T10:52:46;97982.91;;;8.99;65.50
11223;BME280;5668;52.012;8.724;2024-02-23T10:55:15;97978.06;;;9.04;65.49
11223;BME280;5668;52.012;8.724;2024-02-23T10:57:43;97984.06;;;9.04;65.96
11223;BME280;5668;52.012;8.724;2024-02-23T11:00:12;97976.44;;;9.03;66.03
11223;BME280;5668;52.012;8.724;2024-02-23T11:02:45;97963.50;;;9.03;66.16
11223;BME280;5668;52.012;8.724;2024-02-23T11:05:14;97962.22;;;9.07;66.22
11223;BME280;5668;52.012;8.724;2024-02-23T11:07:42;97963.22;;;9.14;66.33
11223;BME280;5668;52.012;8.724;2024-02-23T11:10:14;97959.16;;;9.11;66.39
11223;BME280;5668;52.012;8.724;2024-02-23T11:12:43;97951.25;;;9.13;65.74
11223;BME280;5668;52.012;8.724;2024-02-23T11:15:26;97956.13;;;9.16;65.49
11223;BME280;5668;52.012;8.724;2024-02-23T11:17:53;97965.81;;;9.14;65.97
11223;BME280;5668;52.012;8.724;2024-02-23T11:20:21;97965.19;;;9.20;65.89
11223;BME280;5668;52.012;8.724;2024-02-23T11:22:52;97947.09;;;9.28;66.12
11223;BME280;5668;52.012;8.724;2024-02-23T11:25:20;97954.56;;;9.31;66.01
11223;BME280;5668;52.012;8.724;2024-02-23T11:27:53;97939.66;;;9.41;66.37
11223;BME280;5668;52.012;8.724;2024-02-23T11:30:21;97936.63;;;9.46;66.77
11223;BME280;5668;52.012;8.724;2024-02-23T11:32:49;97935.81;;;9.45;65.56
11223;BME280;5668;52.012;8.724;2024-02-23T11:35:20;97937.25;;;9.48;64.74
11223;BME280;5668;52.012;8.724;2024-02-23T11:37:53;97936.44;;;9.55;65.94
11223;BME280;5668;52.012;8.724;2024-02-23T11:40:25;97937.28;;;9.64;66.39
11223;BME280;5668;52.012;8.724;2024-02-23T11:42:54;97937.44;;;9.70;65.93
11223;BME280;5668;52.012;8.724;2024-02-23T11:45:23;97932.91;;;9.73;65.71
11223;BME280;5668;52.012;8.724;2024-02-23T11:47:50;97934.22;;;9.68;63.85
11223;BME280;5668;52.012;8.724;2024-02-23T11:50:18;97930.84;;;9.76;64.63
11223;BME280;5668;52.012;8.724;2024-02-23T11:52:46;97939.72;;;9.74;64.50
11223;BME280;5668;52.012;8.724;2024-02-23T11:55:18;97937.81;;;9.76;64.42
11223;BME280;5668;52.012;8.724;2024-02-23T11:57:48;97930.66;;;9.69;63.78
11223;BME280;5668;52.012;8.724;2024-02-23T12:00:15;97931.94;;;9.74;63.46
11223;BME280;5668;52.012;8.724;2024-02-23T12:02:45;97931.81;;;9.75;64.77
11223;BME280;5668;52.012;8.724;2024-02-23T12:05:14;97939.56;;;9.75;64.15
11223;BME280;5668;52.012;8.724;2024-02-23T12:07:42;97929.34;;;9.74;63.71
11223;BME280;5668;52.012;8.724;2024-02-23T12:10:11;97932.59;;;9.76;64.01
11223;BME280;5668;52.012;8.724;2024-02-23T12:12:39;97937.44;;;9.70;63.45
11223;BME280;5668;52.012;8.724;2024-02-23T12:15:07;97927.72;;;9.73;63.57
11223;BME280;5668;52.012;8.724;2024-02-23T12:17:36;97931.66;;;9.77;63.99
11223;BME280;5668;52.012;8.724;2024-02-23T12:20:09;97925.31;;;9.79;64.13
11223;BME280;5668;52.012;8.724;2024-02-23T12:22:37;97940.25;;;9.77;63.79
11223;BME280;5668;52.012;8.724;2024-02-23T12:25:07;97916.72;;;9.79;64.25
11223;BME280;5668;52.012;8.724;2024-02-23T12:27:34;97933.44;;;9.76;64.02
11223;BME280;5668;52.012;8.724;2024-02-23T12:30:01;97921.91;;;9.79;63.75
11223;BME280;5668;52.012;8.724;2024-02-23T12:32:28;97927.91;;;9.79;63.86
11223;BME280;5668;52.012;8.724;2024-02-23T12:34:56;97936.50;;;9.80;64.04
11223;BME280;5668;52.012;8.724;2024-02-23T12:37:24;97924.84;;;9.84;64.42
11223;BME280;5668;52.012;8.724;2024-02-23T12:39:52;97923.88;;;9.85;63.82
11223;BME280;5668;52.012;8.724;2024-02-23T12:42:19;97928.56;;;9.89;63.78
11223;BME280;5668;52.012;8.724;2024-02-23T12:44:46;97932.28;;;9.95;64.10
11223;BME280;5668;52.012;8.724;2024-02-23T12:47:14;97937.16;;;9.98;64.55
11223;BME280;5668;52.012;8.724;2024-02-23T12:49:41;97933.41;;;10.00;64.02
11223;BME280;5668;52.012;8.724;2024-02-23T12:52:08;97940.38;;;10.00;63.72
11223;BME280;5668;52.012;8.724;2024-02-23T12:54:37;97934.88;;;10.03;64.15
11223;BME280;5668;52.012;8.724;2024-02-23T12:57:04;97942.34;;;9.98;63.48
11223;BME280;5668;52.012;8.724;2024-02-23T12:59:31;97942.66;;;10.03;63.65
11223;BME280;5668;52.012;8.724;2024-02-23T13:01:59;97944.59;;;10.09;64.37
11223;BME280;5668;52.012;8.724;2024-02-23T13:04:26;97939.75;;;10.06;64.21
11223;BME280;5668;52.012;8.724;2024-02-23T13:06:53;97948.81;;;10.10;63.50
11223;BME280;5668;52.012;8.724;2024-02-23T13:09:20;97942.00;;;10.09;63.85
11223;BME280;5668;52.012;8.724;2024-02-23T13:11:49;97941.53;;;10.14;63.91
11223;BME280;5668;52.012;8.724;2024-02-23T13:14:16;97931.97;;;10.14;63.76
11223;BME280;5668;52.012;8.724;2024-02-23T13:16:43;97936.84;;;10.17;63.69
11223;BME280;5668;52.012;8.724;2024-02-23T13:19:11;97934.56;;;10.14;64.00
11223;BME280;5668;52.012;8.724;2024-02-23T13:21:38;97920.94;;;10.12;63.50
11223;BME280;5668;52.012;8.724;2024-02-23T13:24:05;97931.50;;;10.19;64.61